KOPF

Miami-Opa Locka Executive Airport

Miami, Florida, USA
METAR KOPF 272353Z 16015G24KT 10SM FEW019 BKN075 BKN100 27/24 A2984 RMK AO2 PK WND 16026/2257 RAB23E34 SLP107 P0000 60000 T02670239 10289 20267 52010
Observed Flight Rules
May-27 @ 23:53 UTC (an hour ago) Visual Flight Rules
Wind Visibility Clouds
160° at 15 knots
 Gusting to 24 knots
10 miles
  • Few at 1,900' AGL
  • Broken at 7,500' AGL
  • Broken at 10,000' AGL
Temperatures Readings Precipitation
Current 27°C / 81°F
Dewpoint 24°C / 75°F
Humidity 84%
Altimeter 29.84" Hg
Pressure 1010.7 hPa
Elevation 16
Current Rain 0.005
METAR KOPF 272353Z 16015G24KT 10SM FEW019 BKN075 BKN100 27/24 A2984 RMK AO2 PK WND 16026/2257 RAB23E34 SLP107 P0000 60000 T02670239 10289 20267 52010
Observed Flight Rules
May-27 @ 23:53 UTC
(an hour ago)
VFR
Wind Visibility
160° at 15 knots
 Gusting to 24 knots
10 miles
Clouds
  • Few at 1,900' AGL
  • Broken at 7,500' AGL
  • Broken at 10,000' AGL
Temperature Dewpoint
27°C / 81°F 24°C / 75°F
Humidity Altimeter Pressure
84% 29.84" Hg 1010.7 hPa
Current Rain
0.005